createdAt,value
2022-12-16T00:01:24.533Z,87.04
2022-12-16T00:03:52.577Z,86.46
2022-12-16T00:06:22.912Z,86.07
2022-12-16T00:08:50.235Z,86.00
2022-12-16T00:11:19.688Z,86.38
2022-12-16T00:13:47.957Z,86.05
2022-12-16T00:16:16.553Z,86.60
2022-12-16T00:18:45.933Z,86.27
2022-12-16T00:21:13.728Z,86.69
2022-12-16T00:23:41.959Z,86.62
2022-12-16T00:26:09.527Z,86.20
2022-12-16T00:28:36.967Z,86.11
2022-12-16T00:31:04.483Z,85.48
2022-12-16T00:33:33.305Z,85.35
2022-12-16T00:36:02.268Z,86.15
2022-12-16T00:38:29.732Z,85.56
2022-12-16T00:40:57.035Z,85.80
2022-12-16T00:43:24.361Z,85.29
2022-12-16T00:45:52.177Z,85.15
2022-12-16T00:48:22.932Z,84.93
2022-12-16T00:50:50.903Z,85.38
2022-12-16T00:53:20.688Z,86.05
2022-12-16T00:55:48.221Z,86.32
2022-12-16T00:58:15.847Z,86.36
2022-12-16T01:00:43.217Z,86.51
2022-12-16T01:03:10.823Z,86.14
2022-12-16T01:05:39.826Z,86.30
2022-12-16T01:08:07.168Z,85.82
2022-12-16T01:10:35.806Z,85.30
2022-12-16T01:13:03.153Z,85.35
2022-12-16T01:15:30.455Z,85.67
2022-12-16T01:17:57.765Z,85.56
2022-12-16T01:20:25.133Z,85.50
2022-12-16T01:22:52.425Z,86.43
2022-12-16T01:25:19.744Z,85.85
2022-12-16T01:27:48.528Z,86.40
2022-12-16T01:30:15.895Z,86.46
2022-12-16T01:32:43.197Z,85.43
2022-12-16T01:35:36.430Z,86.30
2022-12-16T01:37:58.266Z,86.29
2022-12-16T01:40:25.763Z,86.35
2022-12-16T01:42:54.396Z,86.70
2022-12-16T01:45:28.949Z,86.53
2022-12-16T01:47:57.491Z,86.84
2022-12-16T01:50:24.994Z,86.88
2022-12-16T01:52:54.858Z,86.70
2022-12-16T01:55:25.536Z,86.46
2022-12-16T01:57:56.805Z,86.35
2022-12-16T02:00:24.195Z,86.28
2022-12-16T02:02:52.339Z,86.41
2022-12-16T02:05:22.920Z,86.97
2022-12-16T02:07:55.970Z,86.61
2022-12-16T02:10:27.026Z,86.89
2022-12-16T02:12:57.180Z,86.53
2022-12-16T02:15:32.567Z,86.27
2022-12-16T02:18:06.086Z,86.43
2022-12-16T02:20:52.371Z,86.03
2022-12-16T02:23:44.050Z,86.87
2022-12-16T02:26:28.071Z,86.64
2022-12-16T02:29:09.009Z,86.55
2022-12-16T02:31:41.929Z,86.70
2022-12-16T02:34:11.514Z,87.16
2022-12-16T02:36:43.980Z,87.23
2022-12-16T02:39:15.368Z,87.42
2022-12-16T02:41:44.706Z,86.59
2022-12-16T02:44:12.703Z,86.22
2022-12-16T02:46:42.551Z,86.30
2022-12-16T02:49:30.055Z,85.84
2022-12-16T02:51:58.860Z,86.38
2022-12-16T02:54:27.849Z,87.09
2022-12-16T02:56:57.748Z,86.74
2022-12-16T02:59:29.067Z,87.17
2022-12-16T03:02:01.673Z,87.72
2022-12-16T03:04:35.738Z,87.45
2022-12-16T03:07:05.214Z,87.70
2022-12-16T03:09:34.572Z,87.35
2022-12-16T03:12:04.962Z,87.23
2022-12-16T03:14:34.718Z,86.80
2022-12-16T03:17:04.198Z,86.22
2022-12-16T03:19:32.369Z,85.84
2022-12-16T03:22:02.370Z,85.81
2022-12-16T03:24:30.666Z,85.74
2022-12-16T03:27:04.386Z,85.93
2022-12-16T03:29:37.726Z,85.33
2022-12-16T03:32:10.748Z,85.54
2022-12-16T03:34:42.369Z,85.26
2022-12-16T03:37:10.561Z,85.53
2022-12-16T03:39:41.048Z,85.23
2022-12-16T03:42:09.209Z,85.37
2022-12-16T03:44:37.250Z,84.43
2022-12-16T03:47:05.936Z,84.48
2022-12-16T03:49:33.287Z,85.05
2022-12-16T03:52:00.841Z,84.75
2022-12-16T03:54:28.168Z,85.07
2022-12-16T03:56:55.510Z,84.93
2022-12-16T03:59:22.967Z,85.05
2022-12-16T04:01:50.520Z,85.02
2022-12-16T04:04:19.460Z,84.45
2022-12-16T04:07:06.767Z,84.89
2022-12-16T04:09:34.144Z,85.08
2022-12-16T04:12:19.260Z,84.90
2022-12-16T04:15:03.957Z,84.72
2022-12-16T04:17:48.680Z,84.85
2022-12-16T04:20:35.598Z,84.61
2022-12-16T04:23:20.795Z,84.83
2022-12-16T04:25:48.313Z,84.07
2022-12-16T04:28:15.654Z,84.28
2022-12-16T04:30:43.047Z,83.67
2022-12-16T04:33:29.264Z,83.33
2022-12-16T04:36:15.567Z,82.93
2022-12-16T04:39:00.128Z,82.87
2022-12-16T04:41:47.080Z,83.14
2022-12-16T04:44:32.619Z,81.81
2022-12-16T04:47:19.385Z,81.47
2022-12-16T04:50:04.207Z,82.25
2022-12-16T04:52:50.738Z,81.54
2022-12-16T04:55:35.420Z,82.07
2022-12-16T04:58:21.014Z,81.89
2022-12-16T05:01:06.339Z,81.46
2022-12-16T05:03:51.764Z,80.87
2022-12-16T05:06:37.519Z,80.23
2022-12-16T05:09:24.110Z,79.98
2022-12-16T05:12:09.351Z,80.39
2022-12-16T05:14:54.027Z,80.24
2022-12-16T05:17:39.555Z,81.19
2022-12-16T05:20:24.804Z,80.96
2022-12-16T05:23:10.059Z,81.52
2022-12-16T05:25:58.516Z,81.37
2022-12-16T05:28:43.379Z,81.70
2022-12-16T05:31:28.389Z,81.83
2022-12-16T05:34:13.383Z,81.71
2022-12-16T05:36:58.227Z,81.86
2022-12-16T05:39:42.951Z,81.71
2022-12-16T05:42:28.845Z,81.17
2022-12-16T05:45:13.774Z,82.17
2022-12-16T05:47:58.894Z,81.89
2022-12-16T05:50:42.946Z,82.01
2022-12-16T05:53:28.136Z,81.75
2022-12-16T05:56:13.040Z,81.78
2022-12-16T05:58:59.133Z,81.54
2022-12-16T06:01:43.943Z,81.88
2022-12-16T06:04:29.149Z,81.73
2022-12-16T06:07:13.842Z,82.25
2022-12-16T06:09:58.665Z,81.55
2022-12-16T06:12:43.440Z,79.47
2022-12-16T06:15:29.733Z,79.68
2022-12-16T06:18:15.281Z,79.68
2022-12-16T06:21:00.049Z,78.01
2022-12-16T06:23:44.838Z,77.71
2022-12-16T06:26:29.426Z,77.39
2022-12-16T06:29:14.266Z,76.94
2022-12-16T06:32:00.180Z,76.24
2022-12-16T06:34:45.252Z,77.17
2022-12-16T06:37:29.988Z,79.10
2022-12-16T06:40:15.745Z,79.37
2022-12-16T06:43:00.603Z,80.07
2022-12-16T06:45:45.552Z,80.37
2022-12-16T06:48:31.951Z,80.07
2022-12-16T06:51:16.754Z,80.21
2022-12-16T06:54:01.675Z,80.50
2022-12-16T06:56:46.471Z,80.34
2022-12-16T06:59:31.257Z,80.17
2022-12-16T07:02:17.639Z,80.15
2022-12-16T07:05:03.883Z,80.74
2022-12-16T07:07:48.744Z,80.53
2022-12-16T07:10:33.630Z,81.31
2022-12-16T07:13:18.801Z,80.58
2022-12-16T07:16:03.597Z,80.79
2022-12-16T07:18:48.638Z,80.91
2022-12-16T07:21:34.629Z,81.51
2022-12-16T07:24:19.360Z,81.27
2022-12-16T07:27:04.161Z,81.12
2022-12-16T07:29:48.766Z,81.81
2022-12-16T07:32:33.640Z,81.33
2022-12-16T07:35:18.499Z,81.68
2022-12-16T07:38:01.156Z,81.00
2022-12-16T07:40:46.026Z,81.43
2022-12-16T07:43:30.962Z,81.56
2022-12-16T07:46:16.356Z,81.10
2022-12-16T07:49:01.482Z,81.16
2022-12-16T07:51:46.456Z,80.78
2022-12-16T07:54:32.438Z,80.15
2022-12-16T07:57:20.343Z,80.32
2022-12-16T08:00:05.156Z,80.24
2022-12-16T08:02:49.416Z,80.72
2022-12-16T08:05:34.332Z,80.82
2022-12-16T08:08:20.245Z,80.04
2022-12-16T08:11:08.277Z,80.54
2022-12-16T08:13:53.594Z,80.55
2022-12-16T08:16:38.262Z,80.55
2022-12-16T08:19:23.324Z,80.46
2022-12-16T08:22:08.046Z,79.93
2022-12-16T08:24:56.134Z,80.10
2022-12-16T08:27:42.399Z,79.77
2022-12-16T08:30:27.763Z,79.91
2022-12-16T08:33:18.739Z,80.50
2022-12-16T08:36:04.603Z,79.32
2022-12-16T08:38:49.458Z,79.46
2022-12-16T08:41:34.498Z,79.22
2022-12-16T08:44:22.730Z,79.15
2022-12-16T08:47:07.591Z,79.72
2022-12-16T08:49:57.710Z,79.41
2022-12-16T08:52:46.544Z,79.33
2022-12-16T08:55:31.513Z,79.14
2022-12-16T08:58:16.194Z,78.87
2022-12-16T09:01:07.068Z,79.32
2022-12-16T09:03:53.042Z,78.98
2022-12-16T09:06:40.759Z,78.85
2022-12-16T09:09:26.006Z,78.50
2022-12-16T09:12:10.804Z,77.59
2022-12-16T09:14:56.075Z,77.22
2022-12-16T09:17:42.519Z,76.55
2022-12-16T09:20:27.665Z,75.17
2022-12-16T09:23:12.477Z,75.67
2022-12-16T09:25:57.203Z,75.79
2022-12-16T09:28:42.366Z,75.03
2022-12-16T09:31:27.440Z,74.38
2022-12-16T09:34:13.772Z,75.75
2022-12-16T09:36:58.715Z,75.69
2022-12-16T09:39:43.380Z,74.83
2022-12-16T09:42:38.257Z,74.87
2022-12-16T09:45:30.025Z,73.94
2022-12-16T09:48:20.323Z,74.13
2022-12-16T09:51:06.837Z,74.11
2022-12-16T09:53:55.316Z,74.91
2022-12-16T09:56:44.003Z,75.01
2022-12-16T09:59:31.334Z,75.08
2022-12-16T10:02:16.423Z,75.72
2022-12-16T10:05:02.323Z,75.25
2022-12-16T10:07:49.808Z,75.49
2022-12-16T10:10:39.335Z,75.24
2022-12-16T10:13:28.230Z,75.41
2022-12-16T10:16:18.632Z,75.47
2022-12-16T10:19:09.307Z,74.91
2022-12-16T10:21:59.640Z,74.24
2022-12-16T10:24:52.206Z,74.28
2022-12-16T10:27:40.369Z,75.80
2022-12-16T10:30:30.579Z,75.31
2022-12-16T10:33:15.931Z,75.33
2022-12-16T10:36:02.845Z,75.12
2022-12-16T10:38:54.985Z,74.82
2022-12-16T10:41:43.320Z,74.50
2022-12-16T10:44:34.599Z,74.45
2022-12-16T10:47:19.405Z,74.47
2022-12-16T10:50:04.169Z,74.81
2022-12-16T10:52:49.747Z,74.50
2022-12-16T10:55:41.019Z,74.62
2022-12-16T10:58:39.047Z,74.33
2022-12-16T11:01:38.591Z,73.89
2022-12-16T11:04:46.162Z,75.11
2022-12-16T11:07:41.365Z,75.89
2022-12-16T11:10:42.185Z,75.10
2022-12-16T11:13:34.782Z,75.47
2022-12-16T11:16:28.046Z,75.73
2022-12-16T11:19:13.014Z,75.96
2022-12-16T11:22:12.479Z,76.11
2022-12-16T11:24:57.653Z,75.98
2022-12-16T11:27:43.766Z,76.77
2022-12-16T11:30:37.239Z,76.84
2022-12-16T11:33:25.650Z,76.99
2022-12-16T11:36:11.847Z,77.55
2022-12-16T11:38:59.105Z,77.54
2022-12-16T11:41:46.389Z,78.08
2022-12-16T11:44:36.983Z,78.73
2022-12-16T11:47:29.451Z,78.91
2022-12-16T11:50:16.458Z,79.01
2022-12-16T11:53:04.065Z,79.23
2022-12-16T11:56:06.498Z,78.83
2022-12-16T11:58:56.298Z,78.42
2022-12-16T12:01:45.829Z,78.23
2022-12-16T12:04:32.593Z,78.26
2022-12-16T12:07:37.449Z,78.86
2022-12-16T12:10:46.818Z,79.26
2022-12-16T12:13:46.044Z,79.47
2022-12-16T12:16:34.834Z,79.27
2022-12-16T12:19:24.302Z,78.85
2022-12-16T12:22:11.379Z,78.02
2022-12-16T12:24:59.311Z,78.82
2022-12-16T12:27:48.548Z,79.27
2022-12-16T12:30:35.882Z,79.18
2022-12-16T12:33:31.049Z,79.06
2022-12-16T12:36:20.423Z,78.45
2022-12-16T12:39:13.639Z,79.25
2022-12-16T12:42:09.575Z,78.60
2022-12-16T12:45:03.010Z,78.71
2022-12-16T12:47:49.039Z,79.51
2022-12-16T12:50:38.318Z,79.64
2022-12-16T12:53:28.856Z,79.50
2022-12-16T12:56:22.848Z,79.78
2022-12-16T12:59:09.621Z,79.88
2022-12-16T13:01:56.848Z,80.66
2022-12-16T13:04:42.982Z,80.29
2022-12-16T13:07:28.268Z,80.54
2022-12-16T13:10:32.859Z,80.72
2022-12-16T13:16:18.128Z,80.85
2022-12-16T13:19:06.606Z,80.93
2022-12-16T13:22:05.009Z,80.22
2022-12-16T13:24:57.965Z,80.72
2022-12-16T13:27:43.687Z,80.53
2022-12-16T13:30:45.697Z,80.42
2022-12-16T13:33:42.259Z,79.85
2022-12-16T13:36:28.259Z,79.76
2022-12-16T13:39:14.368Z,80.34
2022-12-16T13:42:09.391Z,80.22
2022-12-16T13:45:12.761Z,80.37
2022-12-16T13:48:12.624Z,80.36
2022-12-16T13:50:59.211Z,80.40
2022-12-16T13:53:46.354Z,80.51
2022-12-16T13:56:35.385Z,80.33
2022-12-16T13:59:23.360Z,80.64
2022-12-16T14:02:11.268Z,80.45
2022-12-16T14:04:57.695Z,79.20
2022-12-16T14:07:45.697Z,79.30
2022-12-16T14:10:41.978Z,80.01
2022-12-16T14:13:33.030Z,80.38
2022-12-16T14:16:20.179Z,80.92
2022-12-16T14:19:14.517Z,80.35
2022-12-16T14:22:11.301Z,79.94
2022-12-16T14:24:57.599Z,80.88
2022-12-16T14:27:42.977Z,80.69
2022-12-16T14:30:35.281Z,79.99
2022-12-16T14:33:33.431Z,80.16
2022-12-16T14:36:18.493Z,80.50
2022-12-16T14:39:06.303Z,80.58
2022-12-16T14:41:52.754Z,80.24
2022-12-16T14:44:39.061Z,80.15
2022-12-16T14:47:24.272Z,80.40
2022-12-16T14:50:24.615Z,81.01
2022-12-16T14:53:23.959Z,80.85
2022-12-16T14:56:09.100Z,80.40
2022-12-16T14:58:54.977Z,81.32
2022-12-16T15:01:40.875Z,80.86
2022-12-16T15:04:47.088Z,80.77
2022-12-16T15:07:35.579Z,80.04
2022-12-16T15:10:20.977Z,81.38
2022-12-16T15:13:06.703Z,80.51
2022-12-16T15:15:55.224Z,80.93
2022-12-16T15:18:49.470Z,81.37
2022-12-16T15:21:34.267Z,81.41
2022-12-16T15:24:19.075Z,81.14
2022-12-16T15:27:03.763Z,81.68
2022-12-16T15:29:51.569Z,81.54
2022-12-16T15:33:05.366Z,81.54
2022-12-16T15:35:56.525Z,80.71
2022-12-16T15:38:47.148Z,80.69
2022-12-16T15:41:39.444Z,80.79
2022-12-16T15:44:24.348Z,80.12
2022-12-16T15:47:09.064Z,80.91
2022-12-16T15:50:02.089Z,81.38
2022-12-16T15:52:52.404Z,81.28
2022-12-16T15:55:41.616Z,81.54
2022-12-16T15:58:30.880Z,81.60
2022-12-16T16:01:16.767Z,80.82
2022-12-16T16:04:06.923Z,81.20
2022-12-16T16:06:53.873Z,81.36
2022-12-16T16:09:40.196Z,81.63
2022-12-16T16:12:27.044Z,81.49
2022-12-16T16:15:11.853Z,82.15
2022-12-16T16:17:57.152Z,81.64
2022-12-16T16:20:41.907Z,81.15
2022-12-16T16:23:29.063Z,81.13
2022-12-16T16:26:14.406Z,81.07
2022-12-16T16:28:59.074Z,81.78
2022-12-16T16:31:43.790Z,80.87
2022-12-16T16:34:28.802Z,80.29
2022-12-16T16:37:14.558Z,81.27
2022-12-16T16:40:01.051Z,80.82
2022-12-16T16:42:47.965Z,81.04
2022-12-16T16:45:33.133Z,81.40
2022-12-16T16:48:21.934Z,81.15
2022-12-16T16:51:06.555Z,80.58
2022-12-16T16:53:51.362Z,80.13
2022-12-16T16:56:37.451Z,80.94
2022-12-16T16:59:23.356Z,80.94
2022-12-16T17:02:08.359Z,80.95
2022-12-16T17:04:53.584Z,82.59
2022-12-16T17:07:38.478Z,82.28
2022-12-16T17:10:38.038Z,80.97
2022-12-16T17:13:24.332Z,81.19
2022-12-16T17:16:09.332Z,81.55
2022-12-16T17:18:54.150Z,81.03
2022-12-16T17:21:38.834Z,80.63
2022-12-16T17:24:24.039Z,81.02
2022-12-16T17:27:08.792Z,81.46
2022-12-16T17:29:54.708Z,81.23
2022-12-16T17:32:39.624Z,80.96
2022-12-16T17:35:24.881Z,81.05
2022-12-16T17:38:09.705Z,80.98
2022-12-16T17:40:54.529Z,80.63
2022-12-16T17:43:39.272Z,81.08
2022-12-16T17:46:28.018Z,81.27
2022-12-16T17:49:14.104Z,80.07
2022-12-16T17:52:01.583Z,80.32
2022-12-16T17:54:46.804Z,80.28
2022-12-16T17:57:31.495Z,80.34
2022-12-16T18:00:16.329Z,80.68
2022-12-16T18:03:02.687Z,80.87
2022-12-16T18:05:47.525Z,80.14
2022-12-16T18:08:32.417Z,80.51
2022-12-16T18:11:17.815Z,81.29
2022-12-16T18:14:02.525Z,81.10
2022-12-16T18:16:47.766Z,81.38
2022-12-16T18:19:34.975Z,81.02
2022-12-16T18:22:20.353Z,81.17
2022-12-16T18:25:07.601Z,80.47
2022-12-16T18:27:53.866Z,81.92
2022-12-16T18:30:39.194Z,81.15
2022-12-16T18:33:23.893Z,81.36
2022-12-16T18:36:10.138Z,81.32
2022-12-16T18:38:54.787Z,81.60
2022-12-16T18:41:40.477Z,80.62
2022-12-16T18:44:28.235Z,80.54
2022-12-16T18:47:12.809Z,81.43
2022-12-16T18:49:57.669Z,80.68
2022-12-16T18:52:44.165Z,81.39
2022-12-16T18:55:29.506Z,81.29
2022-12-16T18:58:42.242Z,81.19
2022-12-16T19:01:19.841Z,80.88
2022-12-16T19:04:05.065Z,81.26
2022-12-16T19:06:49.731Z,81.38
2022-12-16T19:09:35.792Z,80.69
2022-12-16T19:12:35.108Z,80.96
2022-12-16T19:15:20.175Z,81.18
2022-12-16T19:18:05.509Z,81.52
2022-12-16T19:20:50.150Z,81.01
2022-12-16T19:23:35.344Z,81.58
2022-12-16T19:26:22.033Z,81.41
2022-12-16T19:29:07.145Z,81.37
2022-12-16T19:31:52.497Z,81.04
2022-12-16T19:34:41.304Z,81.11
2022-12-16T19:37:26.276Z,80.92
2022-12-16T19:40:11.111Z,80.93
2022-12-16T19:42:57.089Z,81.53
2022-12-16T19:45:42.081Z,82.06
2022-12-16T19:48:27.050Z,82.10
2022-12-16T19:51:29.413Z,82.71
2022-12-16T19:54:14.334Z,82.14
2022-12-16T19:56:59.476Z,82.34
2022-12-16T19:59:45.420Z,82.10
2022-12-16T20:02:30.809Z,82.29
2022-12-16T20:05:16.282Z,82.63
2022-12-16T20:08:00.954Z,82.66
2022-12-16T20:10:45.745Z,82.03
2022-12-16T20:13:31.589Z,81.78
2022-12-16T20:16:20.692Z,82.22
2022-12-16T20:19:05.322Z,82.02
2022-12-16T20:21:53.569Z,82.62
2022-12-16T20:24:41.095Z,82.76
2022-12-16T20:27:25.779Z,82.45
2022-12-16T20:30:10.276Z,81.67
2022-12-16T20:32:56.316Z,81.77
2022-12-16T20:35:41.367Z,82.43
2022-12-16T20:38:26.026Z,82.41
2022-12-16T20:41:14.370Z,81.89
2022-12-16T20:43:59.178Z,81.99
2022-12-16T20:46:45.416Z,82.59
2022-12-16T20:49:31.979Z,82.67
2022-12-16T20:52:16.637Z,83.23
2022-12-16T20:55:01.366Z,83.14
2022-12-16T20:57:57.592Z,83.39
2022-12-16T21:00:42.271Z,82.70
2022-12-16T21:03:27.508Z,82.60
2022-12-16T21:06:13.513Z,81.98
2022-12-16T21:08:58.303Z,82.86
2022-12-16T21:11:43.072Z,82.76
2022-12-16T21:14:27.933Z,82.49
2022-12-16T21:17:12.690Z,82.47
2022-12-16T21:19:57.464Z,82.07
2022-12-16T21:22:43.510Z,82.18
2022-12-16T21:25:28.313Z,82.62
2022-12-16T21:28:14.745Z,82.57
2022-12-16T21:30:59.522Z,82.19
2022-12-16T21:33:44.745Z,81.61
2022-12-16T21:36:29.572Z,81.55
2022-12-16T21:39:15.611Z,81.69
2022-12-16T21:42:00.262Z,82.31
2022-12-16T21:44:45.132Z,81.81
2022-12-16T21:47:30.123Z,82.57
2022-12-16T21:50:15.148Z,82.41
2022-12-16T21:53:00.415Z,82.11
2022-12-16T21:55:46.235Z,82.81
2022-12-16T21:58:31.424Z,82.32
2022-12-16T22:01:17.238Z,82.06
2022-12-16T22:04:02.267Z,81.69
2022-12-16T22:06:49.074Z,81.54
2022-12-16T22:09:45.457Z,81.35
2022-12-16T22:12:32.399Z,82.08
2022-12-16T22:15:17.020Z,81.33
2022-12-16T22:18:01.692Z,81.61
2022-12-16T22:20:46.372Z,81.26
2022-12-16T22:23:31.142Z,82.03
2022-12-16T22:26:15.797Z,81.46
2022-12-16T22:29:01.839Z,81.85
2022-12-16T22:31:46.598Z,82.18
2022-12-16T22:34:31.362Z,81.73
2022-12-16T22:37:16.258Z,81.25
2022-12-16T22:40:00.966Z,81.92
2022-12-16T22:42:45.782Z,81.32
2022-12-16T22:45:32.314Z,81.76
2022-12-16T22:48:17.019Z,81.67
2022-12-16T22:51:01.830Z,81.99
2022-12-16T22:53:46.644Z,81.87
2022-12-16T22:56:31.913Z,81.73
2022-12-16T22:59:16.932Z,81.79
2022-12-16T23:02:03.068Z,81.87
2022-12-16T23:04:48.135Z,81.46
2022-12-16T23:07:33.247Z,81.29
2022-12-16T23:10:17.939Z,81.50
2022-12-16T23:12:59.244Z,81.44
2022-12-16T23:15:44.008Z,81.60
2022-12-16T23:18:30.371Z,81.39
2022-12-16T23:21:15.355Z,81.84
2022-12-16T23:24:00.100Z,82.41
2022-12-16T23:26:44.959Z,82.45
2022-12-16T23:29:30.153Z,82.24
2022-12-16T23:32:15.132Z,82.04
2022-12-16T23:35:01.007Z,82.53
2022-12-16T23:37:45.708Z,82.95
2022-12-16T23:40:30.439Z,82.19
2022-12-16T23:43:15.088Z,82.31
2022-12-16T23:46:01.334Z,82.13
2022-12-16T23:48:46.368Z,81.97
2022-12-16T23:51:32.358Z,82.14
2022-12-16T23:54:25.653Z,82.40
2022-12-16T23:57:10.474Z,82.19
2022-12-16T23:59:55.292Z,83.14
